createdAt,value
2023-03-12T00:01:01.465Z,5.93
2023-03-12T00:03:48.657Z,5.65
2023-03-12T00:06:34.079Z,5.78
2023-03-12T00:09:20.022Z,5.80
2023-03-12T00:12:06.458Z,6.05
2023-03-12T00:14:51.703Z,6.28
2023-03-12T00:17:37.628Z,6.03
2023-03-12T00:20:23.586Z,6.40
2023-03-12T00:23:08.933Z,6.35
2023-03-12T00:25:54.333Z,5.57
2023-03-12T00:28:40.886Z,7.13
2023-03-12T00:31:29.344Z,6.18
2023-03-12T00:34:17.473Z,7.30
2023-03-12T00:37:03.078Z,6.47
2023-03-12T00:39:54.267Z,6.18
2023-03-12T00:42:40.088Z,5.68
2023-03-12T00:45:25.751Z,6.13
2023-03-12T00:48:11.564Z,5.65
2023-03-12T00:50:58.435Z,5.35
2023-03-12T00:53:44.104Z,5.40
2023-03-12T00:56:29.521Z,4.78
2023-03-12T00:59:16.139Z,5.70
2023-03-12T01:02:02.033Z,5.72
2023-03-12T01:04:47.334Z,5.70
2023-03-12T01:07:34.482Z,5.40
2023-03-12T01:10:21.364Z,5.00
2023-03-12T01:13:07.302Z,5.30
2023-03-12T01:15:52.561Z,5.32
2023-03-12T01:18:44.086Z,5.22
2023-03-12T01:21:31.081Z,5.65
2023-03-12T01:24:19.737Z,5.60
2023-03-12T01:27:05.567Z,5.13
2023-03-12T01:29:50.800Z,5.00
2023-03-12T01:32:36.823Z,5.38
2023-03-12T01:35:22.095Z,4.90
2023-03-12T01:38:16.692Z,5.07
2023-03-12T01:41:01.978Z,5.03
2023-03-12T01:43:47.525Z,5.50
2023-03-12T01:46:39.337Z,4.53
2023-03-12T01:49:37.841Z,6.40
2023-03-12T01:52:32.430Z,4.82
2023-03-12T01:55:18.980Z,4.97
2023-03-12T01:58:06.969Z,5.38
2023-03-12T02:00:53.728Z,4.63
2023-03-12T02:03:39.841Z,5.57
2023-03-12T02:06:45.704Z,5.28
2023-03-12T02:09:38.393Z,4.50
2023-03-12T02:12:23.765Z,5.18
2023-03-12T02:15:13.634Z,4.40
2023-03-12T02:17:59.570Z,4.78
2023-03-12T02:20:52.836Z,4.13
2023-03-12T02:23:47.753Z,4.60
2023-03-12T02:26:37.726Z,5.78
2023-03-12T02:29:25.377Z,4.43
2023-03-12T02:32:18.445Z,4.95
2023-03-12T02:35:05.275Z,4.63
2023-03-12T02:37:52.658Z,4.50
2023-03-12T02:40:43.609Z,4.90
2023-03-12T02:43:29.523Z,4.28
2023-03-12T02:46:15.695Z,4.53
2023-03-12T02:49:01.815Z,4.78
2023-03-12T02:51:50.672Z,4.00
2023-03-12T02:54:36.354Z,3.78
2023-03-12T02:57:21.671Z,4.53
2023-03-12T03:00:14.617Z,3.80
2023-03-12T03:03:04.207Z,3.70
2023-03-12T03:05:50.261Z,4.78
2023-03-12T03:08:35.546Z,3.75
2023-03-12T03:11:24.937Z,3.42
2023-03-12T03:14:12.742Z,3.95
2023-03-12T03:16:58.861Z,3.17
2023-03-12T03:19:44.232Z,4.22
2023-03-12T03:22:32.557Z,3.58
2023-03-12T03:25:18.324Z,4.45
2023-03-12T03:28:07.076Z,3.95
2023-03-12T03:30:59.972Z,3.90
2023-03-12T03:33:46.105Z,3.67
2023-03-12T03:36:32.401Z,4.00
2023-03-12T03:39:25.487Z,4.55
2023-03-12T03:42:11.032Z,4.22
2023-03-12T03:44:56.561Z,4.88
2023-03-12T03:47:41.896Z,4.93
2023-03-12T03:50:28.024Z,4.47
2023-03-12T03:53:19.363Z,4.57
2023-03-12T03:56:13.440Z,5.00
2023-03-12T03:59:04.117Z,4.38
2023-03-12T04:01:53.593Z,5.00
2023-03-12T04:04:39.001Z,4.40
2023-03-12T04:07:27.000Z,4.75
2023-03-12T04:10:12.860Z,4.82
2023-03-12T04:12:58.372Z,4.97
2023-03-12T04:15:55.673Z,4.25
2023-03-12T04:18:41.480Z,4.88
2023-03-12T04:21:27.124Z,4.47
2023-03-12T04:24:20.894Z,4.53
2023-03-12T04:27:07.331Z,4.53
2023-03-12T04:29:53.277Z,4.63
2023-03-12T04:32:38.839Z,4.57
2023-03-12T04:35:25.025Z,4.60
2023-03-12T04:38:10.670Z,4.35
2023-03-12T04:41:08.530Z,4.40
2023-03-12T04:43:58.713Z,4.82
2023-03-12T04:46:44.425Z,5.00
2023-03-12T04:49:36.004Z,5.10
2023-03-12T04:52:23.742Z,5.40
2023-03-12T04:55:09.553Z,6.53
2023-03-12T04:57:55.489Z,5.55
2023-03-12T05:00:42.798Z,6.18
2023-03-12T05:03:31.762Z,6.43
2023-03-12T05:06:17.541Z,6.25
2023-03-12T05:09:04.728Z,6.57
2023-03-12T05:11:51.230Z,6.75
2023-03-12T05:14:39.551Z,6.97
2023-03-12T05:17:25.644Z,6.78
2023-03-12T05:20:12.390Z,6.78
2023-03-12T05:22:57.749Z,7.32
2023-03-12T05:25:43.551Z,6.90
2023-03-12T05:28:29.797Z,7.95
2023-03-12T05:31:19.439Z,7.82
2023-03-12T05:34:05.682Z,8.00
2023-03-12T05:36:55.075Z,8.05
2023-03-12T05:39:46.968Z,7.97
2023-03-12T05:42:34.258Z,7.97
2023-03-12T05:45:20.346Z,7.97
2023-03-12T05:48:12.033Z,7.78
2023-03-12T05:50:58.300Z,9.20
2023-03-12T05:53:44.433Z,9.00
2023-03-12T05:56:29.764Z,9.43
2023-03-12T05:59:15.604Z,10.30
2023-03-12T06:02:05.076Z,10.40
2023-03-12T06:04:51.509Z,12.57
2023-03-12T06:07:37.514Z,10.50
2023-03-12T06:10:22.967Z,12.85
2023-03-12T06:13:09.878Z,11.75
2023-03-12T06:16:09.647Z,13.15
2023-03-12T06:19:00.186Z,13.90
2023-03-12T06:21:45.824Z,14.02
2023-03-12T06:24:32.026Z,16.77
2023-03-12T06:27:23.038Z,15.93
2023-03-12T06:30:11.875Z,17.08
2023-03-12T06:32:57.545Z,16.58
2023-03-12T06:35:43.033Z,17.02
2023-03-12T06:38:36.341Z,17.42
2023-03-12T06:41:21.629Z,18.67
2023-03-12T06:44:07.444Z,17.33
2023-03-12T06:46:53.081Z,19.90
2023-03-12T06:49:40.904Z,17.33
2023-03-12T06:52:27.646Z,19.08
2023-03-12T06:55:12.998Z,19.65
2023-03-12T06:57:58.422Z,21.80
2023-03-12T07:00:44.187Z,19.30
2023-03-12T07:03:29.523Z,20.58
2023-03-12T07:06:18.002Z,22.08
2023-03-12T07:09:04.904Z,19.88
2023-03-12T07:11:50.345Z,19.83
2023-03-12T07:14:35.776Z,21.00
2023-03-12T07:17:22.282Z,21.38
2023-03-12T07:20:08.616Z,23.17
2023-03-12T07:22:54.103Z,24.80
2023-03-12T07:25:43.585Z,25.33
2023-03-12T07:28:28.804Z,22.95
2023-03-12T07:31:14.600Z,25.00
2023-03-12T07:34:00.019Z,24.52
2023-03-12T07:36:45.531Z,24.95
2023-03-12T07:39:31.783Z,25.83
2023-03-12T07:42:17.204Z,27.15
2023-03-12T07:45:08.030Z,28.88
2023-03-12T07:47:53.757Z,28.65
2023-03-12T07:50:39.394Z,28.08
2023-03-12T07:53:25.253Z,28.55
2023-03-12T07:56:10.897Z,27.85
2023-03-12T07:58:56.664Z,30.67
2023-03-12T08:01:44.611Z,30.75
2023-03-12T08:04:31.145Z,27.15
2023-03-12T08:07:18.879Z,28.58
2023-03-12T08:10:07.493Z,29.30
2023-03-12T08:12:53.036Z,29.92
2023-03-12T08:15:38.319Z,29.88
2023-03-12T08:18:24.796Z,32.08
2023-03-12T08:21:10.719Z,29.60
2023-03-12T08:23:56.092Z,31.15
2023-03-12T08:26:41.735Z,33.45
2023-03-12T08:29:27.485Z,37.55
2023-03-12T08:32:14.090Z,35.33
2023-03-12T08:35:00.015Z,34.92
2023-03-12T08:37:45.495Z,37.17
2023-03-12T08:40:30.665Z,38.42
2023-03-12T08:43:16.380Z,41.50
2023-03-12T08:46:05.008Z,42.38
2023-03-12T08:48:50.205Z,43.13
2023-03-12T08:51:35.737Z,43.35
2023-03-12T08:54:21.655Z,48.72
2023-03-12T08:57:06.749Z,46.97
2023-03-12T08:59:52.842Z,48.65
2023-03-12T09:02:38.914Z,49.85
2023-03-12T09:05:30.029Z,49.97
2023-03-12T09:08:16.191Z,48.55
2023-03-12T09:11:02.344Z,50.15
2023-03-12T09:14:15.236Z,48.35
2023-03-12T09:16:54.248Z,47.50
2023-03-12T09:19:40.075Z,46.35
2023-03-12T09:22:25.837Z,44.25
2023-03-12T09:25:12.323Z,43.08
2023-03-12T09:27:57.736Z,41.60
2023-03-12T09:30:43.452Z,39.90
2023-03-12T09:33:28.500Z,39.17
2023-03-12T09:36:14.272Z,37.75
2023-03-12T09:38:59.870Z,38.05
2023-03-12T09:41:47.757Z,34.85
2023-03-12T09:44:38.275Z,35.35
2023-03-12T09:47:37.560Z,33.70
2023-03-12T09:50:28.727Z,30.25
2023-03-12T09:53:41.906Z,28.27
2023-03-12T09:56:27.576Z,25.25
2023-03-12T09:59:13.328Z,22.65
2023-03-12T10:02:15.632Z,21.33
2023-03-12T10:05:11.704Z,18.63
2023-03-12T10:08:23.948Z,14.63
2023-03-12T10:11:36.650Z,13.27
2023-03-12T10:14:44.920Z,10.73
2023-03-12T10:17:57.885Z,10.65
2023-03-12T10:21:08.156Z,9.73
2023-03-12T10:24:05.380Z,9.27
2023-03-12T10:26:52.300Z,9.65
2023-03-12T10:29:44.540Z,10.43
2023-03-12T10:32:37.579Z,8.07
2023-03-12T10:35:25.775Z,8.48
2023-03-12T10:38:27.598Z,9.25
2023-03-12T10:41:22.826Z,9.30
2023-03-12T10:47:13.209Z,9.85
2023-03-12T10:50:22.183Z,9.55
2023-03-12T10:53:28.529Z,8.77
2023-03-12T10:56:19.051Z,9.02
2023-03-12T10:59:21.575Z,9.63
2023-03-12T11:02:28.893Z,8.90
2023-03-12T11:05:28.468Z,8.70
2023-03-12T11:08:35.602Z,8.95
2023-03-12T11:11:32.626Z,9.20
2023-03-12T11:14:21.572Z,8.38
2023-03-12T11:17:24.501Z,9.25
2023-03-12T11:20:39.683Z,8.23
2023-03-12T11:23:30.485Z,8.80
2023-03-12T11:26:22.280Z,9.15
2023-03-12T11:29:30.018Z,8.98
2023-03-12T11:32:38.962Z,8.98
2023-03-12T11:35:49.200Z,8.20
2023-03-12T11:38:50.963Z,9.05
2023-03-12T11:42:03.712Z,8.68
2023-03-12T11:45:07.508Z,9.20
2023-03-12T11:48:08.441Z,8.43
2023-03-12T11:51:02.961Z,9.30
2023-03-12T11:54:25.574Z,8.80
2023-03-12T11:57:49.824Z,6.82
2023-03-12T12:00:46.867Z,9.00
2023-03-12T12:03:44.088Z,9.10
2023-03-12T12:06:54.288Z,8.50
2023-03-12T12:10:09.690Z,9.30
2023-03-12T12:13:29.347Z,9.18
2023-03-12T12:16:42.102Z,8.60
2023-03-12T12:19:39.913Z,9.40
2023-03-12T12:22:52.482Z,9.57
2023-03-12T12:25:49.595Z,9.35
2023-03-12T12:29:17.248Z,9.18
2023-03-12T12:32:04.072Z,9.25
2023-03-12T12:35:16.757Z,9.25
2023-03-12T12:38:14.627Z,9.23
2023-03-12T12:41:19.423Z,7.63
2023-03-12T12:44:20.145Z,10.10
2023-03-12T12:47:13.268Z,8.18
2023-03-12T12:49:59.955Z,8.25
2023-03-12T12:52:51.159Z,7.60
2023-03-12T12:55:50.536Z,8.15
2023-03-12T12:59:09.463Z,7.95
2023-03-12T13:01:57.327Z,8.98
2023-03-12T13:04:43.843Z,8.50
2023-03-12T13:07:31.502Z,8.27
2023-03-12T13:10:35.206Z,7.35
2023-03-12T13:13:23.970Z,8.23
2023-03-12T13:16:40.388Z,8.20
2023-03-12T13:19:27.450Z,7.45
2023-03-12T13:22:40.824Z,8.80
2023-03-12T13:25:35.216Z,7.57
2023-03-12T13:28:35.934Z,7.93
2023-03-12T13:31:21.363Z,6.95
2023-03-12T13:34:10.441Z,7.57
2023-03-12T13:37:01.902Z,8.05
2023-03-12T13:39:47.397Z,6.80
2023-03-12T13:42:39.502Z,6.70
2023-03-12T13:45:28.686Z,7.03
2023-03-12T13:48:19.541Z,7.28
2023-03-12T13:51:16.932Z,6.70
2023-03-12T13:54:03.775Z,7.47
2023-03-12T13:57:20.847Z,7.28
2023-03-12T14:00:34.594Z,7.78
2023-03-12T14:03:25.204Z,6.80
2023-03-12T14:06:13.587Z,7.55
2023-03-12T14:09:07.687Z,6.95
2023-03-12T14:12:12.175Z,6.97
2023-03-12T14:15:23.733Z,8.48
2023-03-12T14:18:22.387Z,6.72
2023-03-12T14:21:10.555Z,8.00
2023-03-12T14:23:58.243Z,8.63
2023-03-12T14:26:49.487Z,9.48
2023-03-12T14:29:45.066Z,8.45
2023-03-12T14:32:33.714Z,8.80
2023-03-12T14:35:33.474Z,9.85
2023-03-12T14:38:30.194Z,8.88
2023-03-12T14:41:39.914Z,10.02
2023-03-12T14:44:28.416Z,8.70
2023-03-12T14:47:18.359Z,8.95
2023-03-12T14:50:03.940Z,10.10
2023-03-12T14:52:49.624Z,8.55
2023-03-12T14:55:37.979Z,8.70
2023-03-12T14:58:23.881Z,8.90
2023-03-12T15:01:14.241Z,8.82
2023-03-12T15:04:14.853Z,8.48
2023-03-12T15:07:04.622Z,8.55
2023-03-12T15:09:51.947Z,7.57
2023-03-12T15:12:38.416Z,9.65
2023-03-12T15:15:31.335Z,9.77
2023-03-12T15:18:30.512Z,8.02
2023-03-12T15:21:16.748Z,8.98
2023-03-12T15:24:12.130Z,8.82
2023-03-12T15:26:57.674Z,9.90
2023-03-12T15:29:44.034Z,9.40
2023-03-12T15:32:32.093Z,8.85
2023-03-12T15:35:25.455Z,9.82
2023-03-12T15:38:17.492Z,8.88
2023-03-12T15:41:10.719Z,11.48
2023-03-12T15:43:58.388Z,9.65
2023-03-12T15:46:48.514Z,7.70
2023-03-12T15:49:39.148Z,9.18
2023-03-12T15:52:30.981Z,8.70
2023-03-12T15:55:16.141Z,8.10
2023-03-12T15:58:05.204Z,11.52
2023-03-12T16:00:52.478Z,8.10
2023-03-12T16:03:40.266Z,7.72
2023-03-12T16:06:27.909Z,8.77
2023-03-12T16:09:18.399Z,8.60
2023-03-12T16:12:07.524Z,8.68
2023-03-12T16:14:56.043Z,8.40
2023-03-12T16:17:41.713Z,9.85
2023-03-12T16:20:29.548Z,9.90
2023-03-12T16:23:16.240Z,10.07
2023-03-12T16:26:04.144Z,8.38
2023-03-12T16:28:51.471Z,9.15
2023-03-12T16:31:37.045Z,9.43
2023-03-12T16:34:22.773Z,10.75
2023-03-12T16:37:12.649Z,10.82
2023-03-12T16:39:58.913Z,12.73
2023-03-12T16:42:53.951Z,9.90
2023-03-12T16:45:44.438Z,10.68
2023-03-12T16:48:30.184Z,11.35
2023-03-12T16:51:16.460Z,10.70
2023-03-12T16:54:10.848Z,8.85
2023-03-12T16:56:56.844Z,7.10
2023-03-12T16:59:45.390Z,8.32
2023-03-12T17:02:31.064Z,6.75
2023-03-12T17:05:16.415Z,7.18
2023-03-12T17:08:02.344Z,7.32
2023-03-12T17:10:48.103Z,6.75
2023-03-12T17:13:36.675Z,5.13
2023-03-12T17:16:23.100Z,5.82
2023-03-12T17:19:08.827Z,4.93
2023-03-12T17:21:54.349Z,4.95
2023-03-12T17:24:40.376Z,5.93
2023-03-12T17:27:25.992Z,4.45
2023-03-12T17:30:12.106Z,4.55
2023-03-12T17:33:12.399Z,4.90
2023-03-12T17:36:07.077Z,4.68
2023-03-12T17:38:55.720Z,4.57
2023-03-12T17:41:42.437Z,4.25
2023-03-12T17:44:34.304Z,2.90
2023-03-12T17:47:19.751Z,3.92
2023-03-12T17:50:06.558Z,4.82
2023-03-12T17:52:52.144Z,4.63
2023-03-12T17:55:38.122Z,4.53
2023-03-12T17:58:23.837Z,3.50
2023-03-12T18:01:09.102Z,3.97
2023-03-12T18:03:55.277Z,4.38
2023-03-12T18:06:40.727Z,4.25
2023-03-12T18:09:26.628Z,5.18
2023-03-12T18:12:12.503Z,4.35
2023-03-12T18:15:00.481Z,5.15
2023-03-12T18:17:46.088Z,4.65
2023-03-12T18:20:38.750Z,4.30
2023-03-12T18:23:25.867Z,5.13
2023-03-12T18:26:12.887Z,5.60
2023-03-12T18:28:59.524Z,4.80
2023-03-12T18:31:45.087Z,4.43
2023-03-12T18:34:30.701Z,4.57
2023-03-12T18:37:17.125Z,3.90
2023-03-12T18:40:02.651Z,3.90
2023-03-12T18:42:50.018Z,4.07
2023-03-12T18:45:35.559Z,5.63
2023-03-12T18:48:21.213Z,4.18
2023-03-12T18:51:06.648Z,3.72
2023-03-12T18:53:51.991Z,4.63
2023-03-12T18:56:39.315Z,4.45
2023-03-12T18:59:25.021Z,3.38
2023-03-12T19:02:10.777Z,4.15
2023-03-12T19:04:56.497Z,4.93
2023-03-12T19:07:43.511Z,4.25
2023-03-12T19:10:31.320Z,6.18
2023-03-12T19:13:16.593Z,6.07
2023-03-12T19:16:05.513Z,4.15
2023-03-12T19:18:57.301Z,3.75
2023-03-12T19:21:43.169Z,4.13
2023-03-12T19:24:28.852Z,5.05
2023-03-12T19:27:14.537Z,5.07
2023-03-12T19:30:00.227Z,4.53
2023-03-12T19:32:46.672Z,5.53
2023-03-12T19:35:32.533Z,5.32
2023-03-12T19:38:24.577Z,5.95
2023-03-12T19:41:10.100Z,5.72
2023-03-12T19:43:55.585Z,6.00
2023-03-12T19:46:43.252Z,7.55
2023-03-12T19:49:29.737Z,6.07
2023-03-12T19:52:19.738Z,6.40
2023-03-12T19:55:06.021Z,7.05
2023-03-12T19:57:51.493Z,6.88
2023-03-12T20:00:37.023Z,6.68
2023-03-12T20:03:23.178Z,7.32
2023-03-12T20:06:13.000Z,6.13
2023-03-12T20:08:59.389Z,7.30
2023-03-12T20:11:45.069Z,6.05
2023-03-12T20:14:30.786Z,6.07
2023-03-12T20:17:18.272Z,7.35
2023-03-12T20:20:12.869Z,7.13
2023-03-12T20:22:58.550Z,7.32
2023-03-12T20:25:47.890Z,5.90
2023-03-12T20:31:33.507Z,7.20
2023-03-12T20:34:18.909Z,6.32
2023-03-12T20:37:04.550Z,6.40
2023-03-12T20:39:50.092Z,6.40
2023-03-12T20:42:35.618Z,7.05
2023-03-12T20:45:21.536Z,6.80
2023-03-12T20:48:13.869Z,7.07
2023-03-12T20:51:00.026Z,6.47
2023-03-12T20:53:45.568Z,6.13
2023-03-12T20:56:31.294Z,6.70
2023-03-12T20:59:16.616Z,6.20
2023-03-12T21:02:05.290Z,6.43
2023-03-12T21:04:55.339Z,5.75
2023-03-12T21:07:40.613Z,7.60
2023-03-12T21:10:26.202Z,7.03
2023-03-12T21:13:11.755Z,6.90
2023-03-12T21:15:57.307Z,6.82
2023-03-12T21:18:45.657Z,5.85
2023-03-12T21:21:36.379Z,6.57
2023-03-12T21:24:21.930Z,8.32
2023-03-12T21:27:11.386Z,6.45
2023-03-12T21:29:57.352Z,6.43
2023-03-12T21:32:42.725Z,6.82
2023-03-12T21:35:28.250Z,7.72
2023-03-12T21:38:13.878Z,7.28
2023-03-12T21:41:07.371Z,7.75
2023-03-12T21:43:53.070Z,7.85
2023-03-12T21:46:38.550Z,7.82
2023-03-12T21:49:24.320Z,7.22
2023-03-12T21:52:10.097Z,8.82
2023-03-12T21:54:58.005Z,7.85
2023-03-12T21:57:45.464Z,6.72
2023-03-12T22:00:30.922Z,8.82
2023-03-12T22:03:16.748Z,9.40
2023-03-12T22:06:02.512Z,8.57
2023-03-12T22:08:49.221Z,10.88
2023-03-12T22:11:34.721Z,8.77
2023-03-12T22:14:19.910Z,10.38
2023-03-12T22:17:05.388Z,9.60
2023-03-12T22:19:51.065Z,9.55
2023-03-12T22:22:36.561Z,9.30
2023-03-12T22:25:21.816Z,8.05
2023-03-12T22:28:13.329Z,9.23
2023-03-12T22:31:06.906Z,9.85
2023-03-12T22:33:52.628Z,9.55
2023-03-12T22:36:41.249Z,10.10
2023-03-12T22:39:26.629Z,8.95
2023-03-12T22:42:11.782Z,9.45
2023-03-12T22:45:00.037Z,9.13
2023-03-12T22:47:45.866Z,9.80
2023-03-12T22:50:31.938Z,8.75
2023-03-12T22:53:18.111Z,9.00
2023-03-12T22:56:06.793Z,9.50
2023-03-12T22:58:54.605Z,7.32
2023-03-12T23:01:40.332Z,8.65
2023-03-12T23:04:25.643Z,9.05
2023-03-12T23:07:17.423Z,8.85
2023-03-12T23:10:04.288Z,9.32
2023-03-12T23:12:49.524Z,9.85
2023-03-12T23:15:41.263Z,9.32
2023-03-12T23:18:26.836Z,7.63
2023-03-12T23:21:15.725Z,7.32
2023-03-12T23:24:01.317Z,8.45
2023-03-12T23:26:47.068Z,7.57
2023-03-12T23:29:34.417Z,7.38
2023-03-12T23:32:20.020Z,7.72
2023-03-12T23:35:09.026Z,7.53
2023-03-12T23:37:57.727Z,7.70
2023-03-12T23:40:43.240Z,7.10
2023-03-12T23:43:29.053Z,7.18
2023-03-12T23:46:17.034Z,6.90
2023-03-12T23:49:02.591Z,6.85
2023-03-12T23:51:48.276Z,6.30
2023-03-12T23:54:33.959Z,6.10
2023-03-12T23:57:19.366Z,6.32
